Airfield :
LOGIN :

Register | Disclaimer

   EN    FR    IT 

 










Legend :    VFR   Marginal VFR   IFR   Intensive IFR   Very Intensive IFR
Visi :
Ceiling :
>= 8 km
>= 3000ft
5 to 8 km
1000 to 3000 ft
1500m to 5 km
500 to 1000 ft
800 to 1500m
200 to 500 ft
< 800m
< 200 ft
Symbols :   Thunderstorms  Fog  Heavy snow  Heavy precipitations  Wind > 20 kt
SIGMETs :     Misc.  Thunderstorms  Icing  Turbulence  Mountain Waves  Volcanic Ashes






- Airport Elevation : 161 ft
- IATA code : PMF


LIMP - Parma

CURRENT METAR :
  • 041150Z VRB03KT CAVOK 32/17 Q1015

EXPIRED METARs :
  • 041050Z VRB02KT CAVOK 31/18 Q1016
  • 040950Z 35006KT 320V020 9999 BKN060 29/17 Q1015

TAF TAF LIMP
Valid from the 04 at 12:00 until the 05 at 12:00 UTC


041100Z 0412/0512 34010KT 9999 SCT040
BECMG 0418/0420 VRB04KT
TEMPO 0418/0424 RA



MET'MAP, your aeronautical weather chart ! - Copyright ORBIFLY December 2007 - Disclaimer

ORBIFLY MET'MAP TEAM :

Programming & Development : Alexandra Zaïnal
Original concept : Baudouin d'Aumeries
Technical & hardware support : Manuel Goepfert
Assistance : Marc-Olivier Méhu




SOURCES & CREDITS :

   NOAA